sensor_id;sensor_type;location;lat;lon;timestamp;P1;durP1;ratioP1;P2;durP2;ratioP2
68025;SDS011;54819;48.030;14.710;2023-05-07T00:01:28;2.30;;;1.20;;
68025;SDS011;54819;48.030;14.710;2023-05-07T00:03:54;2.00;;;1.20;;
68025;SDS011;54819;48.030;14.710;2023-05-07T00:06:21;3.90;;;1.40;;
68025;SDS011;54819;48.030;14.710;2023-05-07T00:08:48;2.50;;;1.30;;
68025;SDS011;54819;48.030;14.710;2023-05-07T00:11:15;2.60;;;1.20;;
68025;SDS011;54819;48.030;14.710;2023-05-07T00:13:42;2.50;;;1.60;;
68025;SDS011;54819;48.030;14.710;2023-05-07T00:16:08;3.30;;;1.60;;
68025;SDS011;54819;48.030;14.710;2023-05-07T00:18:35;3.40;;;1.80;;
68025;SDS011;54819;48.030;14.710;2023-05-07T00:21:02;3.50;;;1.60;;
68025;SDS011;54819;48.030;14.710;2023-05-07T00:23:29;3.00;;;1.40;;
68025;SDS011;54819;48.030;14.710;2023-05-07T00:25:56;4.40;;;1.60;;
68025;SDS011;54819;48.030;14.710;2023-05-07T00:28:23;3.70;;;1.40;;
68025;SDS011;54819;48.030;14.710;2023-05-07T00:30:49;2.80;;;1.30;;
68025;SDS011;54819;48.030;14.710;2023-05-07T00:33:16;2.90;;;1.50;;
68025;SDS011;54819;48.030;14.710;2023-05-07T00:35:42;3.00;;;1.50;;
68025;SDS011;54819;48.030;14.710;2023-05-07T00:38:09;3.20;;;1.60;;
68025;SDS011;54819;48.030;14.710;2023-05-07T00:40:36;7.20;;;1.70;;
68025;SDS011;54819;48.030;14.710;2023-05-07T00:43:03;4.50;;;1.80;;
68025;SDS011;54819;48.030;14.710;2023-05-07T00:45:30;3.70;;;1.30;;
68025;SDS011;54819;48.030;14.710;2023-05-07T00:48:01;3.20;;;1.30;;
68025;SDS011;54819;48.030;14.710;2023-05-07T00:50:29;4.40;;;1.50;;
68025;SDS011;54819;48.030;14.710;2023-05-07T00:52:56;4.10;;;1.40;;
68025;SDS011;54819;48.030;14.710;2023-05-07T00:55:23;4.70;;;1.50;;
68025;SDS011;54819;48.030;14.710;2023-05-07T00:57:51;3.70;;;1.90;;
68025;SDS011;54819;48.030;14.710;2023-05-07T01:00:18;2.50;;;1.30;;
68025;SDS011;54819;48.030;14.710;2023-05-07T01:05:15;3.50;;;1.20;;
68025;SDS011;54819;48.030;14.710;2023-05-07T01:07:45;2.80;;;1.30;;
68025;SDS011;54819;48.030;14.710;2023-05-07T01:10:14;2.30;;;1.30;;
68025;SDS011;54819;48.030;14.710;2023-05-07T01:12:41;3.20;;;1.70;;
68025;SDS011;54819;48.030;14.710;2023-05-07T01:15:09;3.60;;;1.60;;
68025;SDS011;54819;48.030;14.710;2023-05-07T01:17:38;4.80;;;1.80;;
68025;SDS011;54819;48.030;14.710;2023-05-07T01:20:11;3.00;;;1.80;;
68025;SDS011;54819;48.030;14.710;2023-05-07T01:22:39;2.40;;;1.40;;
68025;SDS011;54819;48.030;14.710;2023-05-07T01:25:07;2.80;;;1.20;;
68025;SDS011;54819;48.030;14.710;2023-05-07T01:27:36;5.70;;;1.60;;
68025;SDS011;54819;48.030;14.710;2023-05-07T01:30:04;3.20;;;1.70;;
68025;SDS011;54819;48.030;14.710;2023-05-07T01:32:40;4.00;;;2.00;;
68025;SDS011;54819;48.030;14.710;2023-05-07T01:35:17;4.10;;;2.60;;
68025;SDS011;54819;48.030;14.710;2023-05-07T01:37:47;4.50;;;2.30;;
68025;SDS011;54819;48.030;14.710;2023-05-07T01:40:16;3.70;;;2.10;;
68025;SDS011;54819;48.030;14.710;2023-05-07T01:42:43;4.40;;;2.10;;
68025;SDS011;54819;48.030;14.710;2023-05-07T01:45:11;3.80;;;1.80;;
68025;SDS011;54819;48.030;14.710;2023-05-07T01:47:39;4.20;;;2.00;;
68025;SDS011;54819;48.030;14.710;2023-05-07T01:50:06;2.90;;;1.60;;
68025;SDS011;54819;48.030;14.710;2023-05-07T01:52:40;3.60;;;2.10;;
68025;SDS011;54819;48.030;14.710;2023-05-07T01:55:07;4.30;;;2.20;;
68025;SDS011;54819;48.030;14.710;2023-05-07T01:57:34;3.60;;;2.10;;
68025;SDS011;54819;48.030;14.710;2023-05-07T02:00:02;4.60;;;2.50;;
68025;SDS011;54819;48.030;14.710;2023-05-07T02:02:41;4.20;;;2.00;;
68025;SDS011;54819;48.030;14.710;2023-05-07T02:05:11;3.70;;;1.80;;
68025;SDS011;54819;48.030;14.710;2023-05-07T02:10:07;5.10;;;1.50;;
68025;SDS011;54819;48.030;14.710;2023-05-07T02:15:01;3.90;;;1.50;;
68025;SDS011;54819;48.030;14.710;2023-05-07T02:17:29;3.20;;;1.80;;
68025;SDS011;54819;48.030;14.710;2023-05-07T02:19:58;4.00;;;2.00;;
68025;SDS011;54819;48.030;14.710;2023-05-07T02:22:26;4.10;;;2.10;;
68025;SDS011;54819;48.030;14.710;2023-05-07T02:24:52;5.70;;;2.60;;
68025;SDS011;54819;48.030;14.710;2023-05-07T02:27:19;3.70;;;1.70;;
68025;SDS011;54819;48.030;14.710;2023-05-07T02:29:46;3.10;;;1.80;;
68025;SDS011;54819;48.030;14.710;2023-05-07T02:32:12;2.90;;;1.60;;
68025;SDS011;54819;48.030;14.710;2023-05-07T02:34:39;4.20;;;2.20;;
68025;SDS011;54819;48.030;14.710;2023-05-07T02:37:05;4.90;;;2.10;;
68025;SDS011;54819;48.030;14.710;2023-05-07T02:39:32;3.10;;;1.50;;
68025;SDS011;54819;48.030;14.710;2023-05-07T02:41:59;4.10;;;1.90;;
68025;SDS011;54819;48.030;14.710;2023-05-07T02:44:26;6.80;;;1.80;;
68025;SDS011;54819;48.030;14.710;2023-05-07T02:46:52;4.40;;;2.00;;
68025;SDS011;54819;48.030;14.710;2023-05-07T02:49:19;4.80;;;2.50;;
68025;SDS011;54819;48.030;14.710;2023-05-07T02:51:46;3.40;;;2.20;;
68025;SDS011;54819;48.030;14.710;2023-05-07T02:54:17;4.80;;;2.00;;
68025;SDS011;54819;48.030;14.710;2023-05-07T02:56:44;5.60;;;2.90;;
68025;SDS011;54819;48.030;14.710;2023-05-07T02:59:11;7.00;;;4.10;;
68025;SDS011;54819;48.030;14.710;2023-05-07T03:01:39;7.80;;;4.90;;
68025;SDS011;54819;48.030;14.710;2023-05-07T03:04:07;5.70;;;3.50;;
68025;SDS011;54819;48.030;14.710;2023-05-07T03:06:34;7.60;;;3.60;;
68025;SDS011;54819;48.030;14.710;2023-05-07T03:09:00;7.90;;;3.10;;
68025;SDS011;54819;48.030;14.710;2023-05-07T03:11:28;8.00;;;3.60;;
68025;SDS011;54819;48.030;14.710;2023-05-07T03:13:55;7.10;;;4.10;;
68025;SDS011;54819;48.030;14.710;2023-05-07T03:16:21;6.10;;;3.70;;
68025;SDS011;54819;48.030;14.710;2023-05-07T03:18:48;5.40;;;3.30;;
68025;SDS011;54819;48.030;14.710;2023-05-07T03:21:15;5.90;;;3.10;;
68025;SDS011;54819;48.030;14.710;2023-05-07T03:23:42;7.70;;;2.80;;
68025;SDS011;54819;48.030;14.710;2023-05-07T03:26:08;4.30;;;2.50;;
68025;SDS011;54819;48.030;14.710;2023-05-07T03:28:36;4.30;;;2.50;;
68025;SDS011;54819;48.030;14.710;2023-05-07T03:31:05;5.50;;;3.30;;
68025;SDS011;54819;48.030;14.710;2023-05-07T03:33:33;5.00;;;2.80;;
68025;SDS011;54819;48.030;14.710;2023-05-07T03:36:01;5.30;;;3.40;;
68025;SDS011;54819;48.030;14.710;2023-05-07T03:38:28;6.00;;;3.40;;
68025;SDS011;54819;48.030;14.710;2023-05-07T03:40:55;9.30;;;3.60;;
68025;SDS011;54819;48.030;14.710;2023-05-07T03:43:21;4.70;;;3.00;;
68025;SDS011;54819;48.030;14.710;2023-05-07T03:45:53;5.20;;;3.10;;
68025;SDS011;54819;48.030;14.710;2023-05-07T03:48:23;4.30;;;3.00;;
68025;SDS011;54819;48.030;14.710;2023-05-07T03:50:51;4.40;;;3.10;;
68025;SDS011;54819;48.030;14.710;2023-05-07T03:53:19;6.10;;;3.10;;
68025;SDS011;54819;48.030;14.710;2023-05-07T03:55:45;5.20;;;3.10;;
68025;SDS011;54819;48.030;14.710;2023-05-07T03:58:12;5.90;;;3.60;;
68025;SDS011;54819;48.030;14.710;2023-05-07T04:00:38;6.40;;;3.40;;
68025;SDS011;54819;48.030;14.710;2023-05-07T04:03:19;9.80;;;3.60;;
68025;SDS011;54819;48.030;14.710;2023-05-07T04:05:46;6.40;;;4.00;;
68025;SDS011;54819;48.030;14.710;2023-05-07T04:08:13;7.00;;;3.50;;
68025;SDS011;54819;48.030;14.710;2023-05-07T04:10:44;5.60;;;3.00;;
68025;SDS011;54819;48.030;14.710;2023-05-07T04:13:12;4.50;;;2.80;;
68025;SDS011;54819;48.030;14.710;2023-05-07T04:15:40;4.70;;;3.00;;
68025;SDS011;54819;48.030;14.710;2023-05-07T04:18:08;7.20;;;3.30;;
68025;SDS011;54819;48.030;14.710;2023-05-07T04:20:35;6.20;;;3.00;;
68025;SDS011;54819;48.030;14.710;2023-05-07T04:23:04;4.30;;;3.10;;
68025;SDS011;54819;48.030;14.710;2023-05-07T04:25:31;6.60;;;3.30;;
68025;SDS011;54819;48.030;14.710;2023-05-07T04:28:04;4.30;;;3.00;;
68025;SDS011;54819;48.030;14.710;2023-05-07T04:30:31;4.70;;;3.40;;
68025;SDS011;54819;48.030;14.710;2023-05-07T04:32:58;5.00;;;2.50;;
68025;SDS011;54819;48.030;14.710;2023-05-07T04:37:53;9.30;;;4.00;;
68025;SDS011;54819;48.030;14.710;2023-05-07T04:40:19;5.10;;;3.40;;
68025;SDS011;54819;48.030;14.710;2023-05-07T04:42:46;7.60;;;4.60;;
68025;SDS011;54819;48.030;14.710;2023-05-07T04:45:13;6.00;;;3.80;;
68025;SDS011;54819;48.030;14.710;2023-05-07T04:50:08;4.50;;;3.30;;
68025;SDS011;54819;48.030;14.710;2023-05-07T04:52:36;4.70;;;3.00;;
68025;SDS011;54819;48.030;14.710;2023-05-07T04:55:03;6.30;;;3.10;;
68025;SDS011;54819;48.030;14.710;2023-05-07T04:57:34;5.60;;;3.20;;
68025;SDS011;54819;48.030;14.710;2023-05-07T05:00:01;5.30;;;3.10;;
68025;SDS011;54819;48.030;14.710;2023-05-07T05:02:30;3.80;;;2.50;;
68025;SDS011;54819;48.030;14.710;2023-05-07T05:04:56;5.50;;;2.90;;
68025;SDS011;54819;48.030;14.710;2023-05-07T05:07:23;6.40;;;3.30;;
68025;SDS011;54819;48.030;14.710;2023-05-07T05:09:50;7.40;;;3.60;;
68025;SDS011;54819;48.030;14.710;2023-05-07T05:12:18;4.00;;;2.90;;
68025;SDS011;54819;48.030;14.710;2023-05-07T05:14:44;6.30;;;3.80;;
68025;SDS011;54819;48.030;14.710;2023-05-07T05:17:11;6.10;;;3.40;;
68025;SDS011;54819;48.030;14.710;2023-05-07T05:19:38;5.30;;;3.70;;
68025;SDS011;54819;48.030;14.710;2023-05-07T05:22:04;5.40;;;2.50;;
68025;SDS011;54819;48.030;14.710;2023-05-07T05:24:31;6.50;;;3.60;;
68025;SDS011;54819;48.030;14.710;2023-05-07T05:26:58;5.70;;;3.50;;
68025;SDS011;54819;48.030;14.710;2023-05-07T05:29:28;5.70;;;4.00;;
68025;SDS011;54819;48.030;14.710;2023-05-07T05:31:55;5.80;;;4.00;;
68025;SDS011;54819;48.030;14.710;2023-05-07T05:34:22;7.00;;;4.30;;
68025;SDS011;54819;48.030;14.710;2023-05-07T05:36:49;8.40;;;4.70;;
68025;SDS011;54819;48.030;14.710;2023-05-07T05:39:16;6.60;;;4.00;;
68025;SDS011;54819;48.030;14.710;2023-05-07T05:41:43;6.00;;;3.90;;
68025;SDS011;54819;48.030;14.710;2023-05-07T05:44:11;6.10;;;3.80;;
68025;SDS011;54819;48.030;14.710;2023-05-07T05:46:38;9.30;;;4.30;;
68025;SDS011;54819;48.030;14.710;2023-05-07T05:49:05;6.60;;;4.10;;
68025;SDS011;54819;48.030;14.710;2023-05-07T05:51:31;8.10;;;4.90;;
68025;SDS011;54819;48.030;14.710;2023-05-07T05:53:58;7.50;;;5.00;;
68025;SDS011;54819;48.030;14.710;2023-05-07T05:56:25;10.70;;;5.50;;
68025;SDS011;54819;48.030;14.710;2023-05-07T05:58:52;8.10;;;5.40;;
68025;SDS011;54819;48.030;14.710;2023-05-07T06:01:19;10.50;;;5.50;;
68025;SDS011;54819;48.030;14.710;2023-05-07T06:03:47;8.70;;;5.60;;
68025;SDS011;54819;48.030;14.710;2023-05-07T06:06:14;10.80;;;6.40;;
68025;SDS011;54819;48.030;14.710;2023-05-07T06:08:42;11.30;;;7.00;;
68025;SDS011;54819;48.030;14.710;2023-05-07T06:16:04;12.30;;;7.30;;
68025;SDS011;54819;48.030;14.710;2023-05-07T06:18:31;13.90;;;7.60;;
68025;SDS011;54819;48.030;14.710;2023-05-07T06:20:58;14.90;;;7.20;;
68025;SDS011;54819;48.030;14.710;2023-05-07T06:23:27;10.60;;;6.10;;
68025;SDS011;54819;48.030;14.710;2023-05-07T06:25:54;10.70;;;6.90;;
68025;SDS011;54819;48.030;14.710;2023-05-07T06:28:24;10.90;;;6.80;;
68025;SDS011;54819;48.030;14.710;2023-05-07T06:30:51;11.30;;;7.00;;
68025;SDS011;54819;48.030;14.710;2023-05-07T06:33:18;11.10;;;6.80;;
68025;SDS011;54819;48.030;14.710;2023-05-07T06:35:46;12.70;;;7.50;;
68025;SDS011;54819;48.030;14.710;2023-05-07T06:38:12;10.40;;;7.20;;
68025;SDS011;54819;48.030;14.710;2023-05-07T06:40:40;11.20;;;6.90;;
68025;SDS011;54819;48.030;14.710;2023-05-07T06:43:06;12.20;;;6.90;;
68025;SDS011;54819;48.030;14.710;2023-05-07T06:45:52;12.50;;;7.30;;
68025;SDS011;54819;48.030;14.710;2023-05-07T06:48:20;12.90;;;7.00;;
68025;SDS011;54819;48.030;14.710;2023-05-07T06:50:58;13.50;;;6.70;;
68025;SDS011;54819;48.030;14.710;2023-05-07T06:53:25;12.70;;;7.30;;
68025;SDS011;54819;48.030;14.710;2023-05-07T06:55:52;13.80;;;7.20;;
68025;SDS011;54819;48.030;14.710;2023-05-07T06:58:19;10.90;;;7.30;;
68025;SDS011;54819;48.030;14.710;2023-05-07T07:00:46;10.60;;;7.10;;
68025;SDS011;54819;48.030;14.710;2023-05-07T07:03:13;13.20;;;6.70;;
68025;SDS011;54819;48.030;14.710;2023-05-07T07:05:41;11.30;;;7.40;;
68025;SDS011;54819;48.030;14.710;2023-05-07T07:10:36;11.50;;;6.50;;
68025;SDS011;54819;48.030;14.710;2023-05-07T07:13:03;16.90;;;7.60;;
68025;SDS011;54819;48.030;14.710;2023-05-07T07:15:30;12.30;;;6.60;;
68025;SDS011;54819;48.030;14.710;2023-05-07T07:17:57;12.00;;;7.80;;
68025;SDS011;54819;48.030;14.710;2023-05-07T07:20:24;11.90;;;7.80;;
68025;SDS011;54819;48.030;14.710;2023-05-07T07:22:51;11.80;;;7.60;;
68025;SDS011;54819;48.030;14.710;2023-05-07T07:25:17;13.60;;;8.80;;
68025;SDS011;54819;48.030;14.710;2023-05-07T07:27:44;13.80;;;8.10;;
68025;SDS011;54819;48.030;14.710;2023-05-07T07:30:11;16.10;;;8.90;;
68025;SDS011;54819;48.030;14.710;2023-05-07T07:32:39;13.00;;;8.70;;
68025;SDS011;54819;48.030;14.710;2023-05-07T07:35:07;13.40;;;7.50;;
68025;SDS011;54819;48.030;14.710;2023-05-07T07:37:34;14.10;;;9.10;;
68025;SDS011;54819;48.030;14.710;2023-05-07T07:40:01;13.10;;;8.30;;
68025;SDS011;54819;48.030;14.710;2023-05-07T07:42:27;14.10;;;9.40;;
68025;SDS011;54819;48.030;14.710;2023-05-07T07:44:56;13.70;;;8.50;;
68025;SDS011;54819;48.030;14.710;2023-05-07T07:47:24;15.20;;;8.40;;
68025;SDS011;54819;48.030;14.710;2023-05-07T07:49:51;14.70;;;9.30;;
68025;SDS011;54819;48.030;14.710;2023-05-07T07:52:18;14.00;;;8.00;;
68025;SDS011;54819;48.030;14.710;2023-05-07T07:54:45;13.00;;;8.30;;
68025;SDS011;54819;48.030;14.710;2023-05-07T07:57:12;14.50;;;9.00;;
68025;SDS011;54819;48.030;14.710;2023-05-07T07:59:39;14.70;;;9.10;;
68025;SDS011;54819;48.030;14.710;2023-05-07T08:02:06;14.10;;;8.70;;
68025;SDS011;54819;48.030;14.710;2023-05-07T08:04:33;13.80;;;7.60;;
68025;SDS011;54819;48.030;14.710;2023-05-07T08:07:03;11.50;;;7.50;;
68025;SDS011;54819;48.030;14.710;2023-05-07T08:09:31;11.80;;;7.70;;
68025;SDS011;54819;48.030;14.710;2023-05-07T08:11:58;12.10;;;7.50;;
68025;SDS011;54819;48.030;14.710;2023-05-07T08:14:25;19.70;;;9.60;;
68025;SDS011;54819;48.030;14.710;2023-05-07T08:16:52;13.90;;;7.70;;
68025;SDS011;54819;48.030;14.710;2023-05-07T08:19:19;13.10;;;7.30;;
68025;SDS011;54819;48.030;14.710;2023-05-07T08:21:46;15.50;;;7.40;;
68025;SDS011;54819;48.030;14.710;2023-05-07T08:24:18;12.40;;;7.70;;
68025;SDS011;54819;48.030;14.710;2023-05-07T08:26:45;11.20;;;7.40;;
68025;SDS011;54819;48.030;14.710;2023-05-07T08:29:13;13.70;;;7.70;;
68025;SDS011;54819;48.030;14.710;2023-05-07T08:31:40;12.30;;;7.40;;
68025;SDS011;54819;48.030;14.710;2023-05-07T08:34:07;11.80;;;7.00;;
68025;SDS011;54819;48.030;14.710;2023-05-07T08:36:37;12.10;;;7.80;;
68025;SDS011;54819;48.030;14.710;2023-05-07T08:39:04;14.80;;;8.40;;
68025;SDS011;54819;48.030;14.710;2023-05-07T08:41:32;13.80;;;8.50;;
68025;SDS011;54819;48.030;14.710;2023-05-07T08:44:02;12.50;;;7.70;;
68025;SDS011;54819;48.030;14.710;2023-05-07T08:46:32;11.90;;;7.60;;
68025;SDS011;54819;48.030;14.710;2023-05-07T08:48:59;14.20;;;8.30;;
68025;SDS011;54819;48.030;14.710;2023-05-07T08:51:26;12.30;;;7.60;;
68025;SDS011;54819;48.030;14.710;2023-05-07T08:53:54;11.80;;;7.50;;
68025;SDS011;54819;48.030;14.710;2023-05-07T08:56:24;14.20;;;8.10;;
68025;SDS011;54819;48.030;14.710;2023-05-07T08:58:51;12.10;;;6.90;;
68025;SDS011;54819;48.030;14.710;2023-05-07T09:01:24;11.70;;;7.70;;
68025;SDS011;54819;48.030;14.710;2023-05-07T09:03:52;12.90;;;6.90;;
68025;SDS011;54819;48.030;14.710;2023-05-07T09:06:20;11.20;;;6.80;;
68025;SDS011;54819;48.030;14.710;2023-05-07T09:08:50;11.30;;;7.30;;
68025;SDS011;54819;48.030;14.710;2023-05-07T09:11:25;11.10;;;6.50;;
68025;SDS011;54819;48.030;14.710;2023-05-07T09:13:54;11.70;;;7.40;;
68025;SDS011;54819;48.030;14.710;2023-05-07T09:16:24;11.50;;;7.30;;
68025;SDS011;54819;48.030;14.710;2023-05-07T09:18:53;14.80;;;9.00;;
68025;SDS011;54819;48.030;14.710;2023-05-07T09:21:21;13.20;;;8.50;;
68025;SDS011;54819;48.030;14.710;2023-05-07T09:23:51;11.50;;;7.70;;
68025;SDS011;54819;48.030;14.710;2023-05-07T09:26:24;12.00;;;7.60;;
68025;SDS011;54819;48.030;14.710;2023-05-07T09:28:51;10.70;;;7.30;;
68025;SDS011;54819;48.030;14.710;2023-05-07T09:31:18;10.50;;;5.80;;
68025;SDS011;54819;48.030;14.710;2023-05-07T09:33:50;14.00;;;8.40;;
68025;SDS011;54819;48.030;14.710;2023-05-07T09:36:19;15.70;;;9.50;;
68025;SDS011;54819;48.030;14.710;2023-05-07T09:38:46;11.40;;;7.40;;
68025;SDS011;54819;48.030;14.710;2023-05-07T09:41:13;12.00;;;8.20;;
68025;SDS011;54819;48.030;14.710;2023-05-07T09:44:03;10.90;;;7.40;;
68025;SDS011;54819;48.030;14.710;2023-05-07T09:46:38;12.00;;;7.60;;
68025;SDS011;54819;48.030;14.710;2023-05-07T09:49:22;14.50;;;7.50;;
68025;SDS011;54819;48.030;14.710;2023-05-07T09:51:52;11.30;;;7.10;;
68025;SDS011;54819;48.030;14.710;2023-05-07T09:54:21;9.70;;;6.10;;
68025;SDS011;54819;48.030;14.710;2023-05-07T09:56:52;14.40;;;8.60;;
68025;SDS011;54819;48.030;14.710;2023-05-07T09:59:22;12.40;;;7.90;;
68025;SDS011;54819;48.030;14.710;2023-05-07T10:01:50;14.30;;;7.60;;
68025;SDS011;54819;48.030;14.710;2023-05-07T10:04:20;10.10;;;6.60;;
68025;SDS011;54819;48.030;14.710;2023-05-07T10:09:15;9.00;;;6.00;;
68025;SDS011;54819;48.030;14.710;2023-05-07T10:14:10;8.30;;;5.00;;
68025;SDS011;54819;48.030;14.710;2023-05-07T10:16:37;8.40;;;5.30;;
68025;SDS011;54819;48.030;14.710;2023-05-07T10:19:09;10.70;;;6.20;;
68025;SDS011;54819;48.030;14.710;2023-05-07T10:21:44;10.40;;;6.80;;
68025;SDS011;54819;48.030;14.710;2023-05-07T10:24:25;11.50;;;7.20;;
68025;SDS011;54819;48.030;14.710;2023-05-07T10:26:55;10.60;;;7.00;;
68025;SDS011;54819;48.030;14.710;2023-05-07T10:35:00;8.50;;;5.50;;
68025;SDS011;54819;48.030;14.710;2023-05-07T10:37:29;12.20;;;6.40;;
68025;SDS011;54819;48.030;14.710;2023-05-07T10:42:24;9.30;;;5.60;;
68025;SDS011;54819;48.030;14.710;2023-05-07T10:44:52;8.40;;;5.40;;
68025;SDS011;54819;48.030;14.710;2023-05-07T10:47:25;8.70;;;5.60;;
68025;SDS011;54819;48.030;14.710;2023-05-07T10:52:26;10.00;;;5.20;;
68025;SDS011;54819;48.030;14.710;2023-05-07T10:55:19;7.60;;;4.70;;
68025;SDS011;54819;48.030;14.710;2023-05-07T11:01:14;8.20;;;4.80;;
68025;SDS011;54819;48.030;14.710;2023-05-07T11:04:16;7.90;;;5.40;;
68025;SDS011;54819;48.030;14.710;2023-05-07T11:09:59;9.00;;;5.00;;
68025;SDS011;54819;48.030;14.710;2023-05-07T11:12:54;8.00;;;4.80;;
68025;SDS011;54819;48.030;14.710;2023-05-07T11:15:39;7.40;;;4.80;;
68025;SDS011;54819;48.030;14.710;2023-05-07T11:18:51;7.10;;;4.80;;
68025;SDS011;54819;48.030;14.710;2023-05-07T11:21:36;7.90;;;5.20;;
68025;SDS011;54819;48.030;14.710;2023-05-07T11:24:23;8.20;;;4.80;;
68025;SDS011;54819;48.030;14.710;2023-05-07T11:27:00;7.70;;;4.90;;
68025;SDS011;54819;48.030;14.710;2023-05-07T11:29:28;9.10;;;5.70;;
68025;SDS011;54819;48.030;14.710;2023-05-07T11:32:00;9.40;;;5.90;;
68025;SDS011;54819;48.030;14.710;2023-05-07T11:34:32;9.60;;;6.10;;
68025;SDS011;54819;48.030;14.710;2023-05-07T11:36:59;8.10;;;4.80;;
68025;SDS011;54819;48.030;14.710;2023-05-07T11:39:41;11.20;;;7.30;;
68025;SDS011;54819;48.030;14.710;2023-05-07T11:42:28;8.90;;;5.60;;
68025;SDS011;54819;48.030;14.710;2023-05-07T11:44:56;10.50;;;5.30;;
68025;SDS011;54819;48.030;14.710;2023-05-07T11:49:53;10.20;;;6.60;;
68025;SDS011;54819;48.030;14.710;2023-05-07T11:52:23;8.50;;;5.90;;
68025;SDS011;54819;48.030;14.710;2023-05-07T11:54:55;11.00;;;6.40;;
68025;SDS011;54819;48.030;14.710;2023-05-07T11:57:24;9.80;;;5.50;;
68025;SDS011;54819;48.030;14.710;2023-05-07T11:59:58;9.10;;;5.70;;
68025;SDS011;54819;48.030;14.710;2023-05-07T12:02:25;9.80;;;5.80;;
68025;SDS011;54819;48.030;14.710;2023-05-07T12:04:53;10.50;;;7.70;;
68025;SDS011;54819;48.030;14.710;2023-05-07T12:07:20;12.50;;;6.60;;
68025;SDS011;54819;48.030;14.710;2023-05-07T12:09:47;8.90;;;6.20;;
68025;SDS011;54819;48.030;14.710;2023-05-07T12:12:14;9.70;;;6.20;;
68025;SDS011;54819;48.030;14.710;2023-05-07T12:14:45;11.00;;;7.00;;
68025;SDS011;54819;48.030;14.710;2023-05-07T12:17:13;9.20;;;5.80;;
68025;SDS011;54819;48.030;14.710;2023-05-07T12:19:43;9.90;;;6.10;;
68025;SDS011;54819;48.030;14.710;2023-05-07T12:22:12;10.10;;;6.60;;
68025;SDS011;54819;48.030;14.710;2023-05-07T12:25:08;12.10;;;6.40;;
68025;SDS011;54819;48.030;14.710;2023-05-07T12:27:37;8.90;;;5.80;;
68025;SDS011;54819;48.030;14.710;2023-05-07T12:30:06;10.80;;;6.10;;
68025;SDS011;54819;48.030;14.710;2023-05-07T12:32:36;10.60;;;6.10;;
68025;SDS011;54819;48.030;14.710;2023-05-07T12:37:32;8.50;;;5.20;;
68025;SDS011;54819;48.030;14.710;2023-05-07T12:40:06;9.00;;;6.60;;
68025;SDS011;54819;48.030;14.710;2023-05-07T12:42:36;8.50;;;6.00;;
68025;SDS011;54819;48.030;14.710;2023-05-07T12:45:10;12.70;;;6.50;;
68025;SDS011;54819;48.030;14.710;2023-05-07T12:47:39;10.60;;;7.10;;
68025;SDS011;54819;48.030;14.710;2023-05-07T12:50:06;9.70;;;5.60;;
68025;SDS011;54819;48.030;14.710;2023-05-07T12:52:33;9.70;;;5.60;;
68025;SDS011;54819;48.030;14.710;2023-05-07T12:55:08;9.70;;;5.40;;
68025;SDS011;54819;48.030;14.710;2023-05-07T12:57:42;9.50;;;5.80;;
68025;SDS011;54819;48.030;14.710;2023-05-07T13:00:13;9.50;;;6.50;;
68025;SDS011;54819;48.030;14.710;2023-05-07T13:02:41;11.00;;;6.80;;
68025;SDS011;54819;48.030;14.710;2023-05-07T13:05:11;11.10;;;6.80;;
68025;SDS011;54819;48.030;14.710;2023-05-07T13:07:39;11.50;;;6.90;;
68025;SDS011;54819;48.030;14.710;2023-05-07T13:10:07;9.40;;;5.90;;
68025;SDS011;54819;48.030;14.710;2023-05-07T13:12:35;9.70;;;7.10;;
68025;SDS011;54819;48.030;14.710;2023-05-07T13:15:02;9.30;;;6.40;;
68025;SDS011;54819;48.030;14.710;2023-05-07T13:17:29;9.90;;;6.10;;
68025;SDS011;54819;48.030;14.710;2023-05-07T13:19:58;10.90;;;6.50;;
68025;SDS011;54819;48.030;14.710;2023-05-07T13:22:24;12.30;;;6.10;;
68025;SDS011;54819;48.030;14.710;2023-05-07T13:24:51;9.90;;;6.10;;
68025;SDS011;54819;48.030;14.710;2023-05-07T13:27:17;9.80;;;6.30;;
68025;SDS011;54819;48.030;14.710;2023-05-07T13:29:45;10.30;;;6.40;;
68025;SDS011;54819;48.030;14.710;2023-05-07T13:32:12;11.70;;;6.10;;
68025;SDS011;54819;48.030;14.710;2023-05-07T13:34:39;11.40;;;7.20;;
68025;SDS011;54819;48.030;14.710;2023-05-07T13:37:06;11.30;;;7.00;;
68025;SDS011;54819;48.030;14.710;2023-05-07T13:39:36;13.30;;;7.70;;
68025;SDS011;54819;48.030;14.710;2023-05-07T13:42:03;11.30;;;7.10;;
68025;SDS011;54819;48.030;14.710;2023-05-07T13:44:30;11.10;;;7.20;;
68025;SDS011;54819;48.030;14.710;2023-05-07T13:46:57;12.10;;;8.20;;
68025;SDS011;54819;48.030;14.710;2023-05-07T13:49:23;11.70;;;6.80;;
68025;SDS011;54819;48.030;14.710;2023-05-07T13:51:50;12.90;;;7.40;;
68025;SDS011;54819;48.030;14.710;2023-05-07T13:54:17;12.50;;;8.30;;
68025;SDS011;54819;48.030;14.710;2023-05-07T13:56:43;10.50;;;7.50;;
68025;SDS011;54819;48.030;14.710;2023-05-07T13:59:10;13.10;;;7.40;;
68025;SDS011;54819;48.030;14.710;2023-05-07T14:01:37;13.70;;;7.30;;
68025;SDS011;54819;48.030;14.710;2023-05-07T14:04:04;11.80;;;7.20;;
68025;SDS011;54819;48.030;14.710;2023-05-07T14:06:30;11.20;;;7.30;;
68025;SDS011;54819;48.030;14.710;2023-05-07T14:08:57;13.00;;;7.80;;
68025;SDS011;54819;48.030;14.710;2023-05-07T14:11:24;16.90;;;9.00;;
68025;SDS011;54819;48.030;14.710;2023-05-07T14:13:51;12.40;;;7.80;;
68025;SDS011;54819;48.030;14.710;2023-05-07T14:16:17;11.60;;;7.00;;
68025;SDS011;54819;48.030;14.710;2023-05-07T14:18:44;12.50;;;8.10;;
68025;SDS011;54819;48.030;14.710;2023-05-07T14:21:11;12.20;;;8.30;;
68025;SDS011;54819;48.030;14.710;2023-05-07T14:23:38;12.40;;;8.40;;
68025;SDS011;54819;48.030;14.710;2023-05-07T14:26:04;13.90;;;9.00;;
68025;SDS011;54819;48.030;14.710;2023-05-07T14:28:31;12.30;;;8.40;;
68025;SDS011;54819;48.030;14.710;2023-05-07T14:30:58;13.90;;;8.20;;
68025;SDS011;54819;48.030;14.710;2023-05-07T14:33:26;12.70;;;7.40;;
68025;SDS011;54819;48.030;14.710;2023-05-07T14:35:52;13.40;;;8.10;;
68025;SDS011;54819;48.030;14.710;2023-05-07T14:38:19;13.90;;;7.60;;
68025;SDS011;54819;48.030;14.710;2023-05-07T14:40:46;15.60;;;8.30;;
68025;SDS011;54819;48.030;14.710;2023-05-07T14:43:13;11.40;;;7.30;;
68025;SDS011;54819;48.030;14.710;2023-05-07T14:45:40;9.70;;;6.80;;
68025;SDS011;54819;48.030;14.710;2023-05-07T14:48:06;11.80;;;8.00;;
68025;SDS011;54819;48.030;14.710;2023-05-07T14:50:35;11.50;;;7.90;;
68025;SDS011;54819;48.030;14.710;2023-05-07T14:53:02;12.20;;;7.60;;
68025;SDS011;54819;48.030;14.710;2023-05-07T14:55:28;13.00;;;7.60;;
68025;SDS011;54819;48.030;14.710;2023-05-07T14:57:55;11.10;;;7.50;;
68025;SDS011;54819;48.030;14.710;2023-05-07T15:00:22;13.30;;;7.50;;
68025;SDS011;54819;48.030;14.710;2023-05-07T15:02:49;13.30;;;7.60;;
68025;SDS011;54819;48.030;14.710;2023-05-07T15:05:16;11.90;;;7.70;;
68025;SDS011;54819;48.030;14.710;2023-05-07T15:07:43;10.70;;;6.80;;
68025;SDS011;54819;48.030;14.710;2023-05-07T15:10:11;12.20;;;7.60;;
68025;SDS011;54819;48.030;14.710;2023-05-07T15:12:38;12.50;;;8.10;;
68025;SDS011;54819;48.030;14.710;2023-05-07T15:15:05;11.70;;;8.00;;
68025;SDS011;54819;48.030;14.710;2023-05-07T15:17:32;11.80;;;7.70;;
68025;SDS011;54819;48.030;14.710;2023-05-07T15:19:59;11.20;;;7.60;;
68025;SDS011;54819;48.030;14.710;2023-05-07T15:22:27;11.40;;;7.10;;
68025;SDS011;54819;48.030;14.710;2023-05-07T15:24:53;11.20;;;7.20;;